createdAt,value
2023-03-17T00:01:04.043Z,-0.57
2023-03-17T00:06:17.359Z,-0.65
2023-03-17T00:11:21.583Z,-0.81
2023-03-17T00:16:27.718Z,-0.97
2023-03-17T00:21:35.949Z,-0.93
2023-03-17T00:26:41.358Z,-0.89
2023-03-17T00:31:46.008Z,-0.89
2023-03-17T00:36:51.805Z,-0.92
2023-03-17T00:41:55.501Z,-0.98
2023-03-17T00:47:00.068Z,-0.93
2023-03-17T00:52:04.381Z,-1.02
2023-03-17T00:57:11.272Z,-1.04
2023-03-17T01:02:15.462Z,-1.05
2023-03-17T01:07:19.639Z,-1.06
2023-03-17T01:12:23.569Z,-1.13
2023-03-17T01:17:27.413Z,-1.14
2023-03-17T01:22:31.425Z,-1.14
2023-03-17T01:27:36.863Z,-1.14
2023-03-17T01:32:40.587Z,-1.09
2023-03-17T01:37:45.638Z,-1.10
2023-03-17T01:42:58.929Z,-1.05
2023-03-17T01:48:02.541Z,-1.05
2023-03-17T01:53:06.673Z,-1.03
2023-03-17T01:58:11.023Z,-1.01
2023-03-17T02:03:14.939Z,-0.96
2023-03-17T02:08:19.027Z,-0.92
2023-03-17T02:13:23.722Z,-0.91
2023-03-17T02:18:27.862Z,-0.95
2023-03-17T02:23:32.183Z,-0.92
2023-03-17T02:28:36.020Z,-0.92
2023-03-17T02:33:39.843Z,-0.98
2023-03-17T02:38:44.013Z,-1.01
2023-03-17T02:43:48.307Z,-1.03
2023-03-17T02:48:52.246Z,-1.04
2023-03-17T02:53:56.297Z,-1.01
2023-03-17T02:58:59.903Z,-1.00
2023-03-17T03:04:04.462Z,-0.98
2023-03-17T03:09:08.274Z,-0.99
2023-03-17T03:14:13.017Z,-1.03
2023-03-17T03:19:16.837Z,-1.01
2023-03-17T03:24:20.758Z,-0.96
2023-03-17T03:29:24.409Z,-0.99
2023-03-17T03:34:28.929Z,-0.97
2023-03-17T03:39:32.801Z,-0.97
2023-03-17T03:44:38.388Z,-0.94
2023-03-17T03:49:42.054Z,-0.91
2023-03-17T03:54:46.198Z,-0.85
2023-03-17T03:59:49.690Z,-0.90
2023-03-17T04:04:54.573Z,-0.87
2023-03-17T04:10:00.146Z,-0.83
2023-03-17T04:15:04.678Z,-0.83
2023-03-17T04:20:10.953Z,-0.85
2023-03-17T04:25:16.306Z,-0.79
2023-03-17T04:30:20.330Z,-0.70
2023-03-17T04:35:24.356Z,-0.69
2023-03-17T04:40:28.384Z,-0.70
2023-03-17T04:45:32.241Z,-0.68
2023-03-17T04:50:36.048Z,-0.66
2023-03-17T04:55:39.862Z,-0.57
2023-03-17T05:00:43.615Z,-0.51
2023-03-17T05:05:47.973Z,-0.47
2023-03-17T05:10:52.844Z,-0.39
2023-03-17T05:15:57.731Z,-0.31
2023-03-17T05:21:01.455Z,-0.27
2023-03-17T05:26:05.712Z,-0.21
2023-03-17T05:31:10.967Z,-0.17
2023-03-17T05:36:16.961Z,-0.15
2023-03-17T05:41:21.208Z,-0.11
2023-03-17T05:46:24.902Z,-0.01
2023-03-17T05:51:33.630Z,0.11
2023-03-17T05:56:41.065Z,0.20
2023-03-17T06:01:52.358Z,0.34
2023-03-17T06:06:56.776Z,0.47
2023-03-17T06:12:01.536Z,0.57
2023-03-17T06:17:06.717Z,0.64
2023-03-17T06:22:10.900Z,0.78
2023-03-17T06:27:14.954Z,0.85
2023-03-17T06:32:20.971Z,0.91
2023-03-17T06:37:25.484Z,1.04
2023-03-17T06:42:29.088Z,1.14
2023-03-17T06:47:32.814Z,1.22
2023-03-17T06:52:37.991Z,1.36
2023-03-17T06:57:42.235Z,1.43
2023-03-17T07:02:46.743Z,1.50
2023-03-17T07:07:51.284Z,1.61
2023-03-17T07:12:55.624Z,1.73
2023-03-17T07:17:59.379Z,1.95
2023-03-17T07:23:03.200Z,2.19
2023-03-17T07:28:07.017Z,2.45
2023-03-17T07:33:11.770Z,2.92
2023-03-17T07:38:18.058Z,3.75
2023-03-17T07:43:22.059Z,4.12
2023-03-17T07:48:25.707Z,4.04
2023-03-17T07:53:30.221Z,4.10
2023-03-17T07:58:34.249Z,4.27
2023-03-17T08:03:41.016Z,4.27
2023-03-17T08:08:47.126Z,4.28
2023-03-17T08:13:51.572Z,4.34
2023-03-17T08:18:56.630Z,4.62
2023-03-17T08:24:00.492Z,4.87
2023-03-17T08:29:05.536Z,5.18
2023-03-17T08:34:09.529Z,5.56
2023-03-17T08:39:13.462Z,6.10
2023-03-17T08:44:17.529Z,6.46
2023-03-17T08:49:22.135Z,6.58
2023-03-17T08:54:25.754Z,6.66
2023-03-17T08:59:30.096Z,6.85
2023-03-17T09:04:34.271Z,6.93
2023-03-17T09:09:37.963Z,7.05
2023-03-17T09:14:44.355Z,6.92
2023-03-17T09:19:48.985Z,7.21
2023-03-17T09:24:53.532Z,7.66
2023-03-17T09:29:57.070Z,8.04
2023-03-17T09:35:01.276Z,8.23
2023-03-17T09:40:09.550Z,8.14
2023-03-17T09:45:32.417Z,8.08
2023-03-17T09:50:45.795Z,8.02
2023-03-17T09:55:56.855Z,7.84
2023-03-17T10:01:03.629Z,7.88
2023-03-17T10:06:40.769Z,7.94
2023-03-17T10:11:51.117Z,7.96
2023-03-17T10:17:23.319Z,7.99
2023-03-17T10:22:40.368Z,7.97
2023-03-17T10:27:52.970Z,8.23
2023-03-17T10:33:02.157Z,8.31
2023-03-17T10:38:24.889Z,8.28
2023-03-17T10:43:36.498Z,8.34
2023-03-17T10:48:40.223Z,8.52
2023-03-17T10:53:44.345Z,8.51
2023-03-17T10:58:51.732Z,8.53
2023-03-17T11:03:56.392Z,8.44
2023-03-17T11:09:09.870Z,8.54
2023-03-17T11:14:19.747Z,8.52
2023-03-17T11:19:55.998Z,8.48
2023-03-17T11:25:19.916Z,8.46
2023-03-17T11:30:38.822Z,8.39
2023-03-17T11:36:25.324Z,8.50
2023-03-17T11:41:42.050Z,8.53
2023-03-17T11:47:03.908Z,8.45
2023-03-17T11:52:28.742Z,8.53
2023-03-17T11:57:52.605Z,8.87
2023-03-17T12:03:15.301Z,9.04
2023-03-17T12:08:39.889Z,9.05
2023-03-17T12:13:52.727Z,9.23
2023-03-17T12:19:28.827Z,9.47
2023-03-17T12:24:49.449Z,9.55
2023-03-17T12:30:30.032Z,9.47
2023-03-17T12:35:39.146Z,9.60
2023-03-17T12:41:31.933Z,9.46
2023-03-17T12:47:09.964Z,9.37
2023-03-17T12:52:54.342Z,9.52
2023-03-17T12:58:04.381Z,9.77
2023-03-17T13:03:26.552Z,9.82
2023-03-17T13:08:52.429Z,9.71
2023-03-17T13:14:24.802Z,9.77
2023-03-17T13:19:34.226Z,9.81
2023-03-17T13:24:48.653Z,9.77
2023-03-17T13:29:54.894Z,9.88
2023-03-17T13:35:02.139Z,9.80
2023-03-17T13:40:17.263Z,9.99
2023-03-17T13:45:36.319Z,10.37
2023-03-17T13:50:43.462Z,10.48
2023-03-17T13:56:42.741Z,10.57
2023-03-17T14:01:49.118Z,10.71
2023-03-17T14:06:58.716Z,10.80
2023-03-17T14:12:23.393Z,10.82
2023-03-17T14:17:51.367Z,10.86
2023-03-17T14:23:05.267Z,10.84
2023-03-17T14:28:17.721Z,10.93
2023-03-17T14:33:48.785Z,11.13
2023-03-17T14:38:56.979Z,12.35
2023-03-17T14:44:03.802Z,13.05
2023-03-17T14:49:21.158Z,13.30
2023-03-17T14:54:35.116Z,13.57
2023-03-17T14:59:43.455Z,13.14
2023-03-17T15:05:05.858Z,12.69
2023-03-17T15:10:20.196Z,12.35
2023-03-17T15:15:30.187Z,11.79
2023-03-17T15:20:37.317Z,11.39
2023-03-17T15:25:50.837Z,11.31
2023-03-17T15:31:14.379Z,11.36
2023-03-17T15:36:31.776Z,11.29
2023-03-17T15:41:38.246Z,10.57
2023-03-17T15:46:42.445Z,10.10
2023-03-17T15:51:46.559Z,9.61
2023-03-17T15:56:52.235Z,9.21
2023-03-17T16:01:56.526Z,8.92
2023-03-17T16:07:00.096Z,8.70
2023-03-17T16:12:04.625Z,8.48
2023-03-17T16:17:26.810Z,8.26
2023-03-17T16:22:43.121Z,8.01
2023-03-17T16:27:49.120Z,7.78
2023-03-17T16:32:54.964Z,7.57
2023-03-17T16:38:00.070Z,7.43
2023-03-17T16:43:24.996Z,7.29
2023-03-17T16:48:31.587Z,7.14
2023-03-17T16:53:36.374Z,7.03
2023-03-17T16:58:42.080Z,6.92
2023-03-17T17:03:46.473Z,6.82
2023-03-17T17:08:52.910Z,6.74
2023-03-17T17:13:58.834Z,6.65
2023-03-17T17:19:04.649Z,6.59
2023-03-17T17:24:12.612Z,6.51
2023-03-17T17:29:16.461Z,6.44
2023-03-17T17:34:20.253Z,6.37
2023-03-17T17:39:24.848Z,6.26
2023-03-17T17:44:28.980Z,6.23
2023-03-17T17:49:33.246Z,6.18
2023-03-17T17:54:37.746Z,6.14
2023-03-17T17:59:41.783Z,6.10
2023-03-17T18:04:45.778Z,6.09
2023-03-17T18:09:49.627Z,6.04
2023-03-17T18:14:53.867Z,6.01
2023-03-17T18:19:57.708Z,5.98
2023-03-17T18:25:02.024Z,5.95
2023-03-17T18:30:10.984Z,5.90
2023-03-17T18:35:19.949Z,5.86
2023-03-17T18:40:25.694Z,5.81
2023-03-17T18:45:30.035Z,5.80
2023-03-17T18:50:36.082Z,5.77
2023-03-17T18:55:42.323Z,5.73
2023-03-17T19:00:47.689Z,5.72
2023-03-17T19:05:52.610Z,5.72
2023-03-17T19:10:56.833Z,5.69
2023-03-17T19:16:01.274Z,5.67
2023-03-17T19:21:06.677Z,5.64
2023-03-17T19:26:12.411Z,5.60
2023-03-17T19:31:16.179Z,5.56
2023-03-17T19:36:21.922Z,5.51
2023-03-17T19:41:27.349Z,5.49
2023-03-17T19:46:31.339Z,5.47
2023-03-17T19:51:35.234Z,5.45
2023-03-17T19:56:40.601Z,5.44
2023-03-17T20:01:44.908Z,5.42
2023-03-17T20:06:55.614Z,5.40
2023-03-17T20:12:00.278Z,5.39
2023-03-17T20:17:04.010Z,5.35
2023-03-17T20:22:09.068Z,5.32
2023-03-17T20:27:15.649Z,5.30
2023-03-17T20:32:19.880Z,5.27
2023-03-17T20:37:25.331Z,5.33
2023-03-17T20:42:29.007Z,5.34
2023-03-17T20:47:32.782Z,5.38
2023-03-17T20:52:37.470Z,5.39
2023-03-17T20:57:45.572Z,5.43
2023-03-17T21:02:50.913Z,5.41
2023-03-17T21:13:32.734Z,5.41
2023-03-17T21:18:34.960Z,5.41
2023-03-17T21:23:37.896Z,5.39
2023-03-17T21:28:41.724Z,5.34
2023-03-17T21:33:44.998Z,5.37
2023-03-17T21:38:47.366Z,5.31
2023-03-17T21:43:50.164Z,5.29
2023-03-17T21:48:56.729Z,5.29
2023-03-17T21:54:00.352Z,5.27
2023-03-17T21:59:03.622Z,5.28
2023-03-17T22:04:06.685Z,5.31
2023-03-17T22:09:11.046Z,5.30
2023-03-17T22:14:20.419Z,5.30
2023-03-17T22:19:24.138Z,5.30
2023-03-17T22:24:26.805Z,5.25
2023-03-17T22:29:29.029Z,5.20
2023-03-17T22:34:33.984Z,5.19
2023-03-17T22:39:38.872Z,5.16
2023-03-17T22:44:42.048Z,5.13
2023-03-17T22:49:44.440Z,5.12
2023-03-17T22:54:46.729Z,5.08
2023-03-17T22:59:49.438Z,5.03
2023-03-17T23:04:52.693Z,5.02
2023-03-17T23:09:55.034Z,5.00
2023-03-17T23:14:57.694Z,4.94
2023-03-17T23:20:00.035Z,4.85
2023-03-17T23:25:03.555Z,4.80
2023-03-17T23:30:07.263Z,4.83
2023-03-17T23:35:13.220Z,4.80
2023-03-17T23:40:16.914Z,4.77
2023-03-17T23:45:19.877Z,4.71
2023-03-17T23:50:22.802Z,4.68
2023-03-17T23:55:25.469Z,4.67
